createdAt,value
2023-02-13T00:02:50.009Z,92.5
2023-02-13T00:07:57.316Z,92.5
2023-02-13T00:13:02.399Z,92.5
2023-02-13T00:18:08.608Z,92.5
2023-02-13T00:23:13.853Z,92.5
2023-02-13T00:28:20.099Z,92.5
2023-02-13T00:33:26.244Z,92.5
2023-02-13T00:38:32.444Z,92.5
2023-02-13T00:43:38.663Z,92.5
2023-02-13T00:53:51.064Z,93.0
2023-02-13T00:58:56.294Z,92.5
2023-02-13T01:04:02.619Z,93.0
2023-02-13T01:09:08.728Z,93.0
2023-02-13T01:14:14.926Z,93.0
2023-02-13T01:19:21.138Z,93.0
2023-02-13T01:24:27.337Z,93.0
2023-02-13T01:29:33.551Z,93.0
2023-02-13T01:34:39.757Z,93.0
2023-02-13T01:39:45.965Z,93.0
2023-02-13T01:44:52.186Z,93.0
2023-02-13T01:49:58.368Z,93.0
2023-02-13T01:55:04.592Z,93.0
2023-02-13T02:00:10.837Z,93.5
2023-02-13T02:05:17.045Z,93.5
2023-02-13T02:10:23.200Z,93.5
2023-02-13T02:15:29.414Z,93.5
2023-02-13T02:20:35.621Z,93.5
2023-02-13T02:25:41.834Z,93.5
2023-02-13T02:30:48.075Z,93.5
2023-02-13T02:35:54.251Z,93.5
2023-02-13T02:41:00.601Z,93.5
2023-02-13T02:46:06.656Z,93.5
2023-02-13T02:51:12.866Z,93.5
2023-02-13T02:56:19.088Z,93.5
2023-02-13T03:01:25.275Z,93.5
2023-02-13T03:06:31.486Z,93.5
2023-02-13T03:11:37.697Z,93.5
2023-02-13T03:16:43.942Z,93.5
2023-02-13T03:21:50.105Z,93.5
2023-02-13T03:26:56.321Z,94.0
2023-02-13T03:32:02.519Z,94.0
2023-02-13T03:42:14.948Z,94.0
2023-02-13T03:47:21.424Z,94.0
2023-02-13T03:52:27.362Z,94.0
2023-02-13T03:57:33.565Z,93.5
2023-02-13T04:02:39.770Z,93.5
2023-02-13T04:07:45.978Z,93.5
2023-02-13T04:12:52.183Z,93.5
2023-02-13T04:17:58.409Z,93.5
2023-02-13T04:23:04.625Z,93.5
2023-02-13T04:28:10.837Z,93.5
2023-02-13T04:33:17.013Z,94.0
2023-02-13T04:38:23.223Z,93.5
2023-02-13T04:43:29.431Z,93.5
2023-02-13T04:48:37.245Z,94.0
2023-02-13T04:53:41.856Z,93.5
2023-02-13T04:58:48.055Z,94.0
2023-02-13T05:03:54.329Z,93.5
2023-02-13T05:09:00.486Z,93.5
2023-02-13T05:14:06.674Z,94.0
2023-02-13T05:19:12.876Z,94.0
2023-02-13T05:24:20.534Z,94.0
2023-02-13T05:29:25.302Z,94.5
2023-02-13T05:34:31.509Z,94.5
2023-02-13T05:39:37.718Z,94.5
2023-02-13T05:44:43.929Z,94.5
2023-02-13T05:49:50.126Z,94.5
2023-02-13T05:54:56.368Z,94.5
2023-02-13T06:00:02.546Z,94.5
2023-02-13T06:05:08.754Z,94.5
2023-02-13T06:10:14.973Z,94.5
2023-02-13T06:15:21.166Z,94.5
2023-02-13T06:20:27.370Z,94.5
2023-02-13T06:25:33.581Z,94.5
2023-02-13T06:30:38.884Z,94.5
2023-02-13T06:35:45.015Z,94.5
2023-02-13T06:40:51.228Z,94.0
2023-02-13T06:45:57.423Z,94.0
2023-02-13T06:51:03.634Z,94.0
2023-02-13T06:56:09.862Z,94.0
2023-02-13T07:01:16.129Z,94.0
2023-02-13T07:06:22.345Z,94.0
2023-02-13T07:11:28.461Z,94.5
2023-02-13T07:16:34.726Z,94.5
2023-02-13T07:21:40.891Z,94.5
2023-02-13T07:26:47.083Z,94.5
2023-02-13T07:31:53.361Z,94.5
2023-02-13T07:36:59.496Z,94.5
2023-02-13T07:42:05.704Z,95.0
2023-02-13T07:47:11.922Z,95.0
2023-02-13T07:52:18.136Z,95.0
2023-02-13T07:57:24.341Z,95.0
2023-02-13T08:02:30.540Z,95.0
2023-02-13T08:07:36.752Z,95.0
2023-02-13T08:12:42.957Z,95.5
2023-02-13T08:17:49.197Z,96.0
2023-02-13T08:22:55.362Z,96.0
2023-02-13T08:28:01.660Z,96.5
2023-02-13T08:33:07.801Z,96.5
2023-02-13T08:38:13.987Z,96.5
2023-02-13T08:43:20.194Z,97.0
2023-02-13T08:48:26.399Z,97.0
2023-02-13T08:53:32.610Z,97.5
2023-02-13T08:58:38.833Z,97.5
2023-02-13T09:03:45.022Z,97.5
2023-02-13T09:08:51.238Z,98.0
2023-02-13T09:13:57.438Z,98.0
2023-02-13T09:19:03.654Z,98.0
2023-02-13T09:24:09.862Z,98.0
2023-02-13T09:29:16.064Z,98.5
2023-02-13T09:34:22.277Z,98.5
2023-02-13T09:39:28.487Z,98.5
2023-02-13T09:44:34.718Z,98.0
2023-02-13T09:49:40.897Z,98.0
2023-02-13T09:54:47.112Z,97.5
2023-02-13T09:59:53.316Z,97.5
2023-02-13T10:04:59.604Z,97.5
2023-02-13T10:10:05.727Z,97.5
2023-02-13T10:15:11.941Z,97.0
2023-02-13T10:20:18.145Z,97.0
2023-02-13T10:25:24.350Z,96.5
2023-02-13T10:30:30.560Z,96.5
2023-02-13T10:35:36.776Z,96.5
2023-02-13T10:40:42.980Z,96.0
2023-02-13T10:45:49.184Z,96.0
2023-02-13T10:50:55.390Z,96.0
2023-02-13T10:56:01.703Z,95.5
2023-02-13T11:01:07.804Z,95.5
2023-02-13T11:06:14.029Z,95.0
2023-02-13T11:11:20.231Z,94.5
2023-02-13T11:16:26.475Z,94.5
2023-02-13T11:21:32.675Z,94.0
2023-02-13T11:26:38.852Z,94.0
2023-02-13T11:31:45.343Z,94.0
2023-02-13T11:36:51.262Z,93.5
2023-02-13T11:41:57.475Z,93.5
2023-02-13T11:47:03.730Z,93.0
2023-02-13T11:52:09.883Z,93.0
2023-02-13T11:57:16.107Z,92.5
2023-02-13T12:02:21.351Z,92.5
2023-02-13T12:07:27.536Z,92.0
2023-02-13T12:12:33.742Z,92.0
2023-02-13T12:17:39.939Z,92.0
2023-02-13T12:22:46.159Z,91.0
2023-02-13T12:27:52.363Z,91.0
2023-02-13T12:32:58.569Z,91.0
2023-02-13T12:38:04.787Z,90.5
2023-02-13T12:43:10.983Z,90.5
2023-02-13T12:48:17.266Z,90.0
2023-02-13T12:53:23.422Z,90.0
2023-02-13T12:58:29.646Z,89.5
2023-02-13T13:03:35.859Z,89.0
2023-02-13T13:08:42.064Z,89.0
2023-02-13T13:13:48.270Z,88.5
2023-02-13T13:18:54.483Z,88.0
2023-02-13T13:24:00.712Z,87.5
2023-02-13T13:29:06.924Z,87.0
2023-02-13T13:34:13.154Z,87.0
2023-02-13T13:39:19.347Z,86.5
2023-02-13T13:44:25.556Z,86.5
2023-02-13T13:49:31.768Z,86.0
2023-02-13T13:54:37.985Z,86.0
2023-02-13T13:59:44.186Z,85.0
2023-02-13T14:04:50.401Z,85.0
2023-02-13T14:09:56.634Z,84.5
2023-02-13T14:15:02.861Z,84.5
2023-02-13T14:20:09.064Z,84.0
2023-02-13T14:25:15.609Z,83.5
2023-02-13T14:30:21.485Z,83.5
2023-02-13T14:35:27.660Z,83.5
2023-02-13T14:40:33.876Z,83.5
2023-02-13T14:45:40.074Z,83.5
2023-02-13T14:50:46.296Z,82.5
2023-02-13T14:55:52.494Z,82.5
2023-02-13T15:00:59.089Z,82.5
2023-02-13T15:06:04.927Z,82.0
2023-02-13T15:11:11.141Z,82.0
2023-02-13T15:16:17.377Z,82.0
2023-02-13T15:21:23.545Z,82.0
2023-02-13T15:26:29.749Z,82.0
2023-02-13T15:31:36.056Z,82.0
2023-02-13T15:36:42.173Z,82.0
2023-02-13T15:41:48.394Z,81.5
2023-02-13T15:46:54.608Z,81.5
2023-02-13T15:52:00.823Z,81.5
2023-02-13T15:57:07.171Z,81.0
2023-02-13T16:02:13.303Z,81.0
2023-02-13T16:07:19.452Z,81.0
2023-02-13T16:12:25.669Z,81.0
2023-02-13T16:17:31.889Z,81.0
2023-02-13T16:22:38.100Z,81.0
2023-02-13T16:27:44.321Z,81.0
2023-02-13T16:32:50.702Z,81.0
2023-02-13T16:37:57.023Z,81.0
2023-02-13T16:43:03.155Z,81.5
2023-02-13T16:48:09.411Z,81.5
2023-02-13T16:53:15.607Z,82.0
2023-02-13T16:58:21.698Z,82.0
2023-02-13T17:03:27.949Z,82.0
2023-02-13T17:08:34.286Z,82.5
2023-02-13T17:13:42.042Z,82.5
2023-02-13T17:18:46.574Z,82.5
2023-02-13T17:23:52.875Z,82.5
2023-02-13T17:28:59.003Z,83.0
2023-02-13T17:34:04.378Z,83.5
2023-02-13T17:39:10.455Z,83.5
2023-02-13T17:44:16.663Z,84.0
2023-02-13T17:49:22.807Z,84.5
2023-02-13T17:54:28.888Z,84.5
2023-02-13T17:59:35.117Z,85.0
2023-02-13T18:04:40.358Z,85.5
2023-02-13T18:09:46.530Z,86.0
2023-02-13T18:14:52.731Z,86.0
2023-02-13T18:19:59.008Z,86.5
2023-02-13T18:25:05.159Z,86.5
2023-02-13T18:30:11.378Z,87.0
2023-02-13T18:35:17.579Z,87.0
2023-02-13T18:40:23.778Z,87.5
2023-02-13T18:45:29.992Z,87.5
2023-02-13T18:50:36.203Z,87.5
2023-02-13T18:55:42.428Z,87.5
2023-02-13T19:00:48.615Z,87.5
2023-02-13T19:05:54.824Z,87.5
2023-02-13T19:11:01.034Z,87.0
2023-02-13T19:16:07.274Z,87.0
2023-02-13T19:21:13.449Z,87.5
2023-02-13T19:26:19.650Z,88.0
2023-02-13T19:31:26.025Z,88.0
2023-02-13T19:36:32.072Z,88.5
2023-02-13T19:41:38.280Z,88.5
2023-02-13T19:46:44.527Z,88.5
2023-02-13T19:51:50.712Z,88.5
2023-02-13T19:56:56.910Z,88.5
2023-02-13T20:02:03.167Z,88.5
2023-02-13T20:07:09.332Z,88.5
2023-02-13T20:12:15.529Z,88.0
2023-02-13T20:17:21.736Z,88.0
2023-02-13T20:22:27.936Z,88.5
2023-02-13T20:27:34.148Z,88.5
2023-02-13T20:32:40.351Z,88.5
2023-02-13T20:42:52.775Z,89.0
2023-02-13T20:47:59.021Z,89.0
2023-02-13T20:53:05.183Z,89.0
2023-02-13T20:58:11.394Z,89.5
2023-02-13T21:03:17.600Z,89.5
2023-02-13T21:08:23.802Z,90.0
2023-02-13T21:13:30.029Z,90.0
2023-02-13T21:18:36.227Z,89.5
2023-02-13T21:23:42.441Z,89.5
2023-02-13T21:28:48.683Z,90.0
2023-02-13T21:33:54.842Z,90.0
2023-02-13T21:39:01.050Z,90.0
2023-02-13T21:44:07.275Z,90.0
2023-02-13T21:49:13.469Z,90.0
2023-02-13T21:54:19.694Z,90.0
2023-02-13T21:59:25.888Z,90.0
2023-02-13T22:04:32.117Z,90.0
2023-02-13T22:09:38.306Z,90.5
2023-02-13T22:14:44.511Z,91.0
2023-02-13T22:19:50.734Z,91.0
2023-02-13T22:24:56.925Z,91.0
2023-02-13T22:30:03.223Z,91.0
2023-02-13T22:35:09.350Z,91.0
2023-02-13T22:40:15.557Z,91.0
2023-02-13T22:45:21.765Z,91.0
2023-02-13T22:50:27.963Z,91.0
2023-02-13T22:55:34.164Z,91.0
2023-02-13T23:00:40.370Z,91.5
2023-02-13T23:05:46.579Z,91.5
2023-02-13T23:10:52.810Z,91.5
2023-02-13T23:15:59.022Z,91.5
2023-02-13T23:21:05.199Z,91.5
2023-02-13T23:26:11.407Z,91.5
2023-02-13T23:31:17.733Z,91.5
2023-02-13T23:36:22.834Z,92.0
2023-02-13T23:41:29.054Z,92.0
2023-02-13T23:46:35.331Z,92.0
2023-02-13T23:51:41.501Z,92.0
2023-02-13T23:56:47.686Z,92.0
